Terminal Aerodrome Forecast
Issued by NWS North Platte, NE

Home | Current Version | Previous Version | Text Only | Print | Product List | Glossary On
Versions: 1 2 3 4 5 6 7 8 9 10 11 12 13
000
FTUS43 KLBF 260600 AAA
TAFLBF
TAF AMD
KLBF 260624Z 2606/2706 32014G23KT P6SM SCT070 OVC090
     FM261300 34017G25KT P6SM SCT025 BKN150
     FM262000 35012G18KT P6SM BKN120
     FM262300 VRB05KT P6SM OVC060=

USA.gov is the U.S. government's official web portal to all federal, state and local government web resources and services.